Terminal Aerodrome Forecast
Issued by NWS Wilmington, OH

Current Version | Previous Version | Graphics & Text | Print | Product List | Glossary On
Versions: 1 2 3 4 5 6 7 8 9 10 11 12 13 14 15 16 17 18 19 20 21 22 23 24 25
707
FTUS41 KILN 221136
TAFDAY
TAF
KDAY 221136Z 2212/2312 20007KT 4SM BR OVC004
      TEMPO 2212/2214 2SM BR OVC025
     FM221400 20006KT 5SM BR OVC012
     FM221700 21007KT P6SM BKN025
     FM230300 20006KT 4SM BR OVC011=

USA.gov is the U.S. government's official web portal to all federal, state and local government web resources and services.